createdAt,value
2018-10-12T00:02:26.311Z,13.50
2018-10-12T00:07:29.413Z,13.50
2018-10-12T00:12:32.532Z,13.50
2018-10-12T00:17:35.672Z,13.50
2018-10-12T00:22:38.792Z,13.50
2018-10-12T00:27:41.902Z,13.50
2018-10-12T00:32:45.248Z,13.50
2018-10-12T00:37:48.356Z,13.50
2018-10-12T00:42:52.152Z,13.60
2018-10-12T00:47:59.688Z,13.60
2018-10-12T00:53:02.808Z,13.50
2018-10-12T00:58:05.912Z,13.60
2018-10-12T01:03:09.052Z,13.60
2018-10-12T01:08:12.166Z,13.60
2018-10-12T01:13:15.273Z,13.60
2018-10-12T01:18:18.572Z,13.60
2018-10-12T01:23:21.677Z,13.60
2018-10-12T01:28:24.784Z,13.60
2018-10-12T01:33:27.888Z,13.60
2018-10-12T01:38:30.996Z,13.60
2018-10-12T01:43:34.108Z,13.60
2018-10-12T01:48:37.221Z,13.60
2018-10-12T01:53:40.325Z,13.60
2018-10-12T01:58:43.424Z,13.60
2018-10-12T02:03:46.536Z,13.60
2018-10-12T02:08:49.653Z,13.60
2018-10-12T02:13:52.780Z,13.60
2018-10-12T02:18:55.896Z,13.60
2018-10-12T02:23:59.000Z,13.50
2018-10-12T02:29:02.100Z,13.60
2018-10-12T02:34:05.720Z,13.50
2018-10-12T02:39:10.745Z,13.50
2018-10-12T02:44:13.861Z,13.50
2018-10-12T02:49:16.973Z,13.40
2018-10-12T02:54:20.080Z,13.40
2018-10-12T02:59:23.197Z,13.40
2018-10-12T03:04:26.310Z,13.40
2018-10-12T03:09:29.408Z,13.30
2018-10-12T03:14:32.512Z,13.30
2018-10-12T03:19:35.612Z,13.30
2018-10-12T03:24:38.725Z,13.20
2018-10-12T03:29:41.824Z,13.20
2018-10-12T03:34:44.936Z,13.20
2018-10-12T03:39:48.045Z,13.20
2018-10-12T03:44:51.156Z,13.20
2018-10-12T03:49:54.265Z,13.20
2018-10-12T03:54:57.368Z,13.20
2018-10-12T04:00:00.489Z,13.20
2018-10-12T04:05:03.598Z,13.20
2018-10-12T04:10:06.712Z,13.20
2018-10-12T04:15:09.841Z,13.20
2018-10-12T04:20:12.966Z,13.20
2018-10-12T04:25:16.076Z,13.20
2018-10-12T04:30:19.184Z,13.10
2018-10-12T04:35:22.289Z,13.10
2018-10-12T04:41:09.884Z,13.10
2018-10-12T04:46:15.141Z,13.10
2018-10-12T04:51:21.801Z,13.10
2018-10-12T04:56:26.028Z,13.10
2018-10-12T05:01:29.168Z,13.00
2018-10-12T05:06:32.293Z,13.00
2018-10-12T05:11:35.425Z,13.00
2018-10-12T05:16:38.619Z,13.00
2018-10-12T05:21:41.717Z,12.90
2018-10-12T05:26:44.829Z,12.90
2018-10-12T05:31:47.936Z,12.90
2018-10-12T05:36:51.040Z,12.80
2018-10-12T05:41:54.186Z,12.80
2018-10-12T05:46:57.293Z,12.70
2018-10-12T05:52:00.409Z,12.70
2018-10-12T05:57:03.526Z,12.70
2018-10-12T06:02:06.771Z,12.60
2018-10-12T06:07:10.746Z,12.60
2018-10-12T06:12:13.851Z,12.60
2018-10-12T06:17:16.956Z,12.50
2018-10-12T06:22:20.088Z,12.50
2018-10-12T06:27:23.188Z,12.50
2018-10-12T06:32:26.293Z,12.50
2018-10-12T06:37:29.469Z,12.50
2018-10-12T06:42:32.574Z,12.50
2018-10-12T06:47:35.689Z,12.50
2018-10-12T06:52:38.804Z,12.50
2018-10-12T06:57:41.911Z,12.60
2018-10-12T07:02:45.021Z,12.70
2018-10-12T07:07:48.128Z,12.70
2018-10-12T07:12:51.232Z,12.90
2018-10-12T07:17:54.346Z,13.00
2018-10-12T07:22:57.468Z,13.10
2018-10-12T07:28:00.581Z,13.20
2018-10-12T07:33:03.685Z,13.40
2018-10-12T07:38:07.076Z,13.60
2018-10-12T07:43:10.184Z,13.70
2018-10-12T07:48:13.379Z,13.90
2018-10-12T07:53:16.446Z,14.10
2018-10-12T07:58:19.508Z,14.30
2018-10-12T08:03:22.608Z,14.50
2018-10-12T08:08:25.741Z,14.90
2018-10-12T08:13:28.862Z,15.30
2018-10-12T08:18:32.016Z,15.60
2018-10-12T08:23:35.144Z,16.00
2018-10-12T08:28:38.244Z,16.50
2018-10-12T08:33:41.344Z,16.90
2018-10-12T08:38:44.449Z,17.30
2018-10-12T08:43:47.557Z,17.60
2018-10-12T08:48:50.660Z,18.00
2018-10-12T08:53:53.780Z,18.30
2018-10-12T08:58:56.896Z,18.70
2018-10-12T09:04:00.076Z,19.00
2018-10-12T09:09:05.142Z,19.30
2018-10-12T09:14:08.275Z,19.60
2018-10-12T09:19:11.376Z,19.90
2018-10-12T09:24:14.500Z,20.20
2018-10-12T09:29:17.609Z,20.40
2018-10-12T09:34:20.720Z,20.80
2018-10-12T09:39:23.827Z,21.10
2018-10-12T09:44:26.944Z,21.30
2018-10-12T09:49:30.052Z,21.60
2018-10-12T09:54:33.153Z,21.80
2018-10-12T09:59:36.261Z,22.00
2018-10-12T10:04:39.369Z,22.20
2018-10-12T10:09:42.472Z,22.40
2018-10-12T10:14:45.593Z,22.60
2018-10-12T10:19:48.710Z,22.80
2018-10-12T10:24:51.842Z,23.00
2018-10-12T10:29:54.936Z,23.10
2018-10-12T10:34:58.045Z,23.30
2018-10-12T10:40:01.155Z,23.40
2018-10-12T10:45:04.259Z,23.60
2018-10-12T10:50:07.364Z,23.80
2018-10-12T10:55:10.502Z,24.00
2018-10-12T11:00:13.727Z,24.20
2018-10-12T11:05:16.843Z,24.40
2018-10-12T11:10:19.957Z,24.60
2018-10-12T11:15:23.064Z,24.70
2018-10-12T11:20:26.176Z,24.90
2018-10-12T11:25:29.297Z,25.10
2018-10-12T11:30:32.421Z,25.20
2018-10-12T11:35:35.552Z,25.40
2018-10-12T11:40:38.669Z,25.50
2018-10-12T11:45:41.794Z,25.70
2018-10-12T11:50:44.897Z,25.90
2018-10-12T11:55:48.055Z,26.00
2018-10-12T12:00:51.299Z,26.20
2018-10-12T12:05:55.105Z,26.30
2018-10-12T12:10:58.063Z,26.40
2018-10-12T12:16:01.177Z,26.50
2018-10-12T12:21:04.290Z,26.60
2018-10-12T12:26:07.548Z,26.70
2018-10-12T12:31:10.652Z,26.80
2018-10-12T12:36:14.672Z,26.90
2018-10-12T12:41:17.624Z,27.00
2018-10-12T12:46:20.737Z,27.00
2018-10-12T12:51:23.845Z,27.00
2018-10-12T12:56:26.949Z,27.10
2018-10-12T13:01:30.076Z,27.10
2018-10-12T13:06:33.277Z,27.20
2018-10-12T13:11:36.546Z,27.20
2018-10-12T13:16:39.654Z,27.30
2018-10-12T13:21:42.764Z,27.30
2018-10-12T13:26:45.909Z,27.30
2018-10-12T13:31:49.038Z,27.30
2018-10-12T13:36:52.111Z,27.40
2018-10-12T13:41:55.220Z,27.40
2018-10-12T13:46:58.324Z,27.40
2018-10-12T13:52:01.444Z,27.40
2018-10-12T13:57:05.756Z,27.30
2018-10-12T14:02:08.914Z,27.30
2018-10-12T14:07:12.025Z,27.20
2018-10-12T14:12:15.224Z,27.20
2018-10-12T14:17:18.292Z,27.20
2018-10-12T14:22:21.397Z,27.20
2018-10-12T14:27:24.531Z,27.10
2018-10-12T14:32:27.632Z,27.10
2018-10-12T14:37:30.748Z,27.00
2018-10-12T14:42:33.848Z,27.00
2018-10-12T14:47:37.027Z,26.90
2018-10-12T14:52:40.136Z,26.80
2018-10-12T14:57:43.249Z,26.60
2018-10-12T15:02:46.642Z,26.50
2018-10-12T15:07:49.780Z,26.40
2018-10-12T15:12:52.890Z,26.30
2018-10-12T15:17:56.772Z,26.20
2018-10-12T15:22:59.885Z,26.00
2018-10-12T15:28:03.002Z,25.90
2018-10-12T15:33:06.109Z,25.80
2018-10-12T15:38:09.211Z,25.60
2018-10-12T15:43:12.374Z,25.50
2018-10-12T15:48:15.832Z,25.30
2018-10-12T15:53:19.101Z,25.20
2018-10-12T15:58:22.437Z,25.00
2018-10-12T16:03:25.596Z,24.70
2018-10-12T16:08:28.724Z,24.50
2018-10-12T16:13:31.889Z,24.30
2018-10-12T16:18:35.052Z,24.10
2018-10-12T16:23:38.193Z,23.90
2018-10-12T16:28:41.310Z,23.60
2018-10-12T16:33:44.412Z,23.40
2018-10-12T16:38:47.526Z,23.20
2018-10-12T16:43:50.621Z,23.00
2018-10-12T16:48:53.779Z,22.80
2018-10-12T16:53:56.860Z,22.60
2018-10-12T16:58:59.978Z,22.40
2018-10-12T17:04:03.128Z,22.10
2018-10-12T17:09:06.472Z,21.90
2018-10-12T17:14:09.731Z,21.70
2018-10-12T17:19:12.821Z,21.50
2018-10-12T17:24:16.020Z,21.30
2018-10-12T17:29:19.124Z,21.10
2018-10-12T17:34:22.240Z,20.90
2018-10-12T17:39:25.345Z,20.70
2018-10-12T17:44:28.517Z,20.50
2018-10-12T17:49:31.626Z,20.30
2018-10-12T17:54:34.773Z,20.20
2018-10-12T17:59:37.953Z,20.00
2018-10-12T18:04:41.106Z,19.80
2018-10-12T18:09:44.209Z,19.60
2018-10-12T18:14:47.396Z,19.50
2018-10-12T18:19:50.570Z,19.30
2018-10-12T18:24:53.684Z,19.20
2018-10-12T18:29:56.809Z,19.00
2018-10-12T18:34:59.943Z,18.90
2018-10-12T18:40:03.069Z,18.70
2018-10-12T18:45:06.271Z,18.60
2018-10-12T18:50:09.373Z,18.50
2018-10-12T18:55:12.480Z,18.30
2018-10-12T19:00:15.650Z,18.20
2018-10-12T19:05:18.773Z,18.00
2018-10-12T19:10:21.885Z,17.90
2018-10-12T19:15:25.159Z,17.80
2018-10-12T19:20:28.264Z,17.60
2018-10-12T19:25:31.384Z,17.50
2018-10-12T19:30:34.496Z,17.40
2018-10-12T19:35:37.614Z,17.30
2018-10-12T19:40:40.725Z,17.20
2018-10-12T19:45:43.844Z,17.10
2018-10-12T19:50:46.997Z,17.00
2018-10-12T19:55:50.116Z,16.90
2018-10-12T20:00:53.243Z,16.80
2018-10-12T20:05:56.352Z,16.70
2018-10-12T20:10:59.464Z,16.60
2018-10-12T20:16:02.592Z,16.50
2018-10-12T20:21:06.004Z,16.40
2018-10-12T20:26:09.116Z,16.30
2018-10-12T20:31:12.259Z,16.20
2018-10-12T20:36:15.404Z,16.10
2018-10-12T20:41:18.525Z,16.00
2018-10-12T20:46:21.659Z,16.00
2018-10-12T20:51:24.765Z,15.80
2018-10-12T20:56:27.869Z,15.80
2018-10-12T21:01:31.028Z,15.70
2018-10-12T21:06:34.139Z,15.60
2018-10-12T21:11:37.253Z,15.50
2018-10-12T21:16:40.360Z,15.40
2018-10-12T21:21:43.500Z,15.40
2018-10-12T21:26:46.656Z,15.30
2018-10-12T21:31:49.755Z,15.20
2018-10-12T21:36:52.869Z,15.10
2018-10-12T21:41:55.976Z,15.10
2018-10-12T21:46:59.116Z,14.90
2018-10-12T21:52:02.217Z,14.80
2018-10-12T21:57:05.855Z,14.80
2018-10-12T22:02:09.049Z,14.70
2018-10-12T22:07:12.191Z,14.60
2018-10-12T22:12:15.256Z,14.50
2018-10-12T22:17:18.365Z,14.40
2018-10-12T22:22:21.550Z,14.40
2018-10-12T22:27:24.655Z,14.30
2018-10-12T22:32:27.760Z,14.20
2018-10-12T22:37:30.888Z,14.10
2018-10-12T22:42:34.009Z,14.10
2018-10-12T22:47:37.108Z,14.00
2018-10-12T22:52:40.223Z,13.90
2018-10-12T22:57:43.329Z,13.80
2018-10-12T23:02:46.445Z,13.80
2018-10-12T23:07:49.573Z,13.70
2018-10-12T23:12:52.940Z,13.70
2018-10-12T23:17:56.048Z,13.60
2018-10-12T23:22:59.151Z,13.50
2018-10-12T23:28:02.257Z,13.40
2018-10-12T23:33:17.140Z,13.40
2018-10-12T23:38:20.242Z,13.30
2018-10-12T23:43:23.364Z,13.30
2018-10-12T23:48:26.468Z,13.20
2018-10-12T23:53:29.625Z,13.20
2018-10-12T23:58:32.772Z,13.10
